sensor_id;sensor_type;location;lat;lon;timestamp;pressure;altitude;pressure_sealevel;temperature;humidity
5413;BME280;2729;50.056;8.678;2022-08-19T00:01:51;99842.13;;;23.01;100.00
5413;BME280;2729;50.056;8.678;2022-08-19T00:04:19;99862.25;;;22.94;100.00
5413;BME280;2729;50.056;8.678;2022-08-19T00:06:46;99859.06;;;23.00;100.00
5413;BME280;2729;50.056;8.678;2022-08-19T00:09:14;99851.34;;;22.97;100.00
5413;BME280;2729;50.056;8.678;2022-08-19T00:11:41;99851.34;;;22.97;100.00
5413;BME280;2729;50.056;8.678;2022-08-19T00:14:08;99850.75;;;22.93;100.00
5413;BME280;2729;50.056;8.678;2022-08-19T00:16:36;99847.84;;;22.96;100.00
5413;BME280;2729;50.056;8.678;2022-08-19T00:19:03;99845.50;;;23.03;100.00
5413;BME280;2729;50.056;8.678;2022-08-19T00:21:29;99839.22;;;23.04;100.00
5413;BME280;2729;50.056;8.678;2022-08-19T00:23:56;99838.75;;;22.99;100.00
5413;BME280;2729;50.056;8.678;2022-08-19T00:26:25;99829.06;;;22.98;100.00
5413;BME280;2729;50.056;8.678;2022-08-19T00:28:51;99824.47;;;23.00;100.00
5413;BME280;2729;50.056;8.678;2022-08-19T00:31:17;99830.84;;;23.08;100.00
5413;BME280;2729;50.056;8.678;2022-08-19T00:33:43;99831.94;;;23.06;100.00
5413;BME280;2729;50.056;8.678;2022-08-19T00:36:09;99833.97;;;23.14;100.00
5413;BME280;2729;50.056;8.678;2022-08-19T00:38:37;99815.72;;;23.09;100.00
5413;BME280;2729;50.056;8.678;2022-08-19T00:41:07;99812.00;;;23.00;100.00
5413;BME280;2729;50.056;8.678;2022-08-19T00:43:34;99819.34;;;23.08;100.00
5413;BME280;2729;50.056;8.678;2022-08-19T00:46:00;99823.56;;;22.90;100.00
5413;BME280;2729;50.056;8.678;2022-08-19T00:48:31;99818.63;;;23.06;100.00
5413;BME280;2729;50.056;8.678;2022-08-19T00:50:58;99822.06;;;22.97;100.00
5413;BME280;2729;50.056;8.678;2022-08-19T00:53:26;99815.25;;;23.04;100.00
5413;BME280;2729;50.056;8.678;2022-08-19T00:55:55;99812.34;;;23.07;100.00
5413;BME280;2729;50.056;8.678;2022-08-19T00:58:25;99806.59;;;22.91;100.00
5413;BME280;2729;50.056;8.678;2022-08-19T01:00:53;99793.69;;;22.86;100.00
5413;BME280;2729;50.056;8.678;2022-08-19T01:03:20;99792.31;;;22.92;100.00
5413;BME280;2729;50.056;8.678;2022-08-19T01:05:48;99794.16;;;22.91;100.00
5413;BME280;2729;50.056;8.678;2022-08-19T01:08:16;99792.91;;;22.95;100.00
5413;BME280;2729;50.056;8.678;2022-08-19T01:10:49;99786.41;;;22.88;100.00
5413;BME280;2729;50.056;8.678;2022-08-19T01:13:20;99795.13;;;22.90;100.00
5413;BME280;2729;50.056;8.678;2022-08-19T01:15:55;99796.88;;;23.01;100.00
5413;BME280;2729;50.056;8.678;2022-08-19T01:18:23;99803.19;;;23.00;100.00
5413;BME280;2729;50.056;8.678;2022-08-19T01:20:51;99799.03;;;23.07;100.00
5413;BME280;2729;50.056;8.678;2022-08-19T01:23:20;99803.81;;;22.92;100.00
5413;BME280;2729;50.056;8.678;2022-08-19T01:25:49;99797.13;;;22.98;100.00
5413;BME280;2729;50.056;8.678;2022-08-19T01:28:19;99800.97;;;23.05;100.00
5413;BME280;2729;50.056;8.678;2022-08-19T01:30:49;99796.88;;;23.01;100.00
5413;BME280;2729;50.056;8.678;2022-08-19T01:33:15;99791.63;;;23.10;100.00
5413;BME280;2729;50.056;8.678;2022-08-19T01:35:42;99783.09;;;23.17;100.00
5413;BME280;2729;50.056;8.678;2022-08-19T01:38:23;99778.75;;;23.16;100.00
5413;BME280;2729;50.056;8.678;2022-08-19T01:40:50;99787.59;;;23.16;100.00
5413;BME280;2729;50.056;8.678;2022-08-19T01:43:16;99785.72;;;23.07;100.00
5413;BME280;2729;50.056;8.678;2022-08-19T01:45:45;99796.34;;;23.07;100.00
5413;BME280;2729;50.056;8.678;2022-08-19T01:48:13;99789.78;;;22.90;100.00
5413;BME280;2729;50.056;8.678;2022-08-19T01:50:40;99790.72;;;23.00;100.00
5413;BME280;2729;50.056;8.678;2022-08-19T01:53:11;99799.72;;;23.09;100.00
5413;BME280;2729;50.056;8.678;2022-08-19T01:55:39;99797.19;;;23.07;100.00
5413;BME280;2729;50.056;8.678;2022-08-19T01:58:08;99800.19;;;23.14;100.00
5413;BME280;2729;50.056;8.678;2022-08-19T02:00:36;99806.44;;;23.24;100.00
5413;BME280;2729;50.056;8.678;2022-08-19T02:03:02;99802.59;;;23.17;100.00
5413;BME280;2729;50.056;8.678;2022-08-19T02:05:29;99798.75;;;23.10;100.00
5413;BME280;2729;50.056;8.678;2022-08-19T02:07:56;99799.22;;;23.15;100.00
5413;BME280;2729;50.056;8.678;2022-08-19T02:10:23;99795.84;;;23.13;100.00
5413;BME280;2729;50.056;8.678;2022-08-19T02:12:49;99783.56;;;23.22;100.00
5413;BME280;2729;50.056;8.678;2022-08-19T02:15:16;99797.06;;;23.09;100.00
5413;BME280;2729;50.056;8.678;2022-08-19T02:17:44;99807.91;;;23.17;100.00
5413;BME280;2729;50.056;8.678;2022-08-19T02:20:10;99825.13;;;23.13;100.00
5413;BME280;2729;50.056;8.678;2022-08-19T02:22:39;99819.53;;;22.95;100.00
5413;BME280;2729;50.056;8.678;2022-08-19T02:25:07;99829.53;;;23.03;100.00
5413;BME280;2729;50.056;8.678;2022-08-19T02:27:33;99825.66;;;23.07;100.00
5413;BME280;2729;50.056;8.678;2022-08-19T02:29:59;99822.22;;;23.16;100.00
5413;BME280;2729;50.056;8.678;2022-08-19T02:32:26;99827.66;;;23.15;100.00
5413;BME280;2729;50.056;8.678;2022-08-19T02:34:52;99816.44;;;23.11;100.00
5413;BME280;2729;50.056;8.678;2022-08-19T02:37:18;99822.00;;;23.08;100.00
5413;BME280;2729;50.056;8.678;2022-08-19T02:40:03;99812.00;;;23.00;100.00
5413;BME280;2729;50.056;8.678;2022-08-19T02:42:29;99815.38;;;23.02;100.00
5413;BME280;2729;50.056;8.678;2022-08-19T02:44:56;99815.06;;;22.96;100.00
5413;BME280;2729;50.056;8.678;2022-08-19T02:47:22;99810.97;;;22.92;100.00
5413;BME280;2729;50.056;8.678;2022-08-19T02:49:48;99814.53;;;23.02;100.00
5413;BME280;2729;50.056;8.678;2022-08-19T02:52:16;99810.25;;;23.10;100.00
5413;BME280;2729;50.056;8.678;2022-08-19T02:54:42;99817.13;;;22.92;100.00
5413;BME280;2729;50.056;8.678;2022-08-19T02:57:08;99819.09;;;23.11;100.00
5413;BME280;2729;50.056;8.678;2022-08-19T02:59:34;99819.72;;;23.03;100.00
5413;BME280;2729;50.056;8.678;2022-08-19T03:02:00;99815.59;;;23.10;100.00
5413;BME280;2729;50.056;8.678;2022-08-19T03:04:26;99813.69;;;23.01;100.00
5413;BME280;2729;50.056;8.678;2022-08-19T03:06:52;99827.50;;;22.63;100.00
5413;BME280;2729;50.056;8.678;2022-08-19T03:09:19;99823.72;;;22.11;100.00
5413;BME280;2729;50.056;8.678;2022-08-19T03:11:46;99844.72;;;21.81;100.00
5413;BME280;2729;50.056;8.678;2022-08-19T03:14:12;99844.56;;;21.49;100.00
5413;BME280;2729;50.056;8.678;2022-08-19T03:16:50;99877.28;;;21.49;100.00
5413;BME280;2729;50.056;8.678;2022-08-19T03:19:18;99883.19;;;21.42;100.00
5413;BME280;2729;50.056;8.678;2022-08-19T03:21:45;99879.66;;;21.30;100.00
5413;BME280;2729;50.056;8.678;2022-08-19T03:24:13;99872.16;;;21.00;100.00
5413;BME280;2729;50.056;8.678;2022-08-19T03:26:41;99871.81;;;21.05;100.00
5413;BME280;2729;50.056;8.678;2022-08-19T03:29:08;99887.72;;;21.05;100.00
5413;BME280;2729;50.056;8.678;2022-08-19T03:31:36;99893.88;;;21.05;100.00
5413;BME280;2729;50.056;8.678;2022-08-19T03:34:02;99893.56;;;20.86;100.00
5413;BME280;2729;50.056;8.678;2022-08-19T03:36:28;99891.53;;;20.77;100.00
5413;BME280;2729;50.056;8.678;2022-08-19T03:38:57;99891.25;;;20.69;100.00
5413;BME280;2729;50.056;8.678;2022-08-19T03:41:26;99890.47;;;20.79;100.00
5413;BME280;2729;50.056;8.678;2022-08-19T03:43:53;99896.22;;;20.73;100.00
5413;BME280;2729;50.056;8.678;2022-08-19T03:46:25;99888.94;;;20.64;100.00
5413;BME280;2729;50.056;8.678;2022-08-19T03:48:53;99886.63;;;20.60;100.00
5413;BME280;2729;50.056;8.678;2022-08-19T03:51:23;99879.97;;;20.54;100.00
5413;BME280;2729;50.056;8.678;2022-08-19T03:53:51;99885.16;;;20.55;100.00
5413;BME280;2729;50.056;8.678;2022-08-19T03:56:17;99883.25;;;20.58;100.00
5413;BME280;2729;50.056;8.678;2022-08-19T03:58:44;99890.06;;;20.49;100.00
5413;BME280;2729;50.056;8.678;2022-08-19T04:01:13;99886.03;;;20.43;100.00
5413;BME280;2729;50.056;8.678;2022-08-19T04:03:40;99893.38;;;20.40;100.00
5413;BME280;2729;50.056;8.678;2022-08-19T04:06:14;99895.91;;;20.41;100.00
5413;BME280;2729;50.056;8.678;2022-08-19T04:08:41;99903.41;;;20.47;100.00
5413;BME280;2729;50.056;8.678;2022-08-19T04:11:10;99901.00;;;20.44;100.00
5413;BME280;2729;50.056;8.678;2022-08-19T04:13:36;99900.66;;;20.36;100.00
5413;BME280;2729;50.056;8.678;2022-08-19T04:16:02;99907.34;;;20.42;100.00
5413;BME280;2729;50.056;8.678;2022-08-19T04:18:30;99900.31;;;20.53;100.00
5413;BME280;2729;50.056;8.678;2022-08-19T04:20:56;99909.56;;;20.48;100.00
5413;BME280;2729;50.056;8.678;2022-08-19T04:23:23;99904.03;;;20.38;100.00
5413;BME280;2729;50.056;8.678;2022-08-19T04:25:49;99897.69;;;20.28;100.00
5413;BME280;2729;50.056;8.678;2022-08-19T04:28:15;99888.69;;;20.31;100.00
5413;BME280;2729;50.056;8.678;2022-08-19T04:30:48;99888.06;;;20.14;100.00
5413;BME280;2729;50.056;8.678;2022-08-19T04:33:16;99883.19;;;20.21;100.00
5413;BME280;2729;50.056;8.678;2022-08-19T04:35:45;99875.47;;;20.18;100.00
5413;BME280;2729;50.056;8.678;2022-08-19T04:38:12;99867.91;;;20.24;100.00
5413;BME280;2729;50.056;8.678;2022-08-19T04:40:43;99887.84;;;20.43;100.00
5413;BME280;2729;50.056;8.678;2022-08-19T04:43:27;99905.66;;;20.41;100.00
5413;BME280;2729;50.056;8.678;2022-08-19T04:45:54;99906.63;;;20.40;100.00
5413;BME280;2729;50.056;8.678;2022-08-19T04:48:21;99899.41;;;20.42;100.00
5413;BME280;2729;50.056;8.678;2022-08-19T04:50:53;99897.50;;;20.44;100.00
5413;BME280;2729;50.056;8.678;2022-08-19T04:53:30;99883.06;;;20.35;100.00
5413;BME280;2729;50.056;8.678;2022-08-19T04:55:59;99887.09;;;20.41;100.00
5413;BME280;2729;50.056;8.678;2022-08-19T04:58:27;99887.72;;;20.44;100.00
5413;BME280;2729;50.056;8.678;2022-08-19T05:00:54;99892.44;;;20.65;100.00
5413;BME280;2729;50.056;8.678;2022-08-19T05:03:20;99886.50;;;20.61;100.00
5413;BME280;2729;50.056;8.678;2022-08-19T05:05:48;99875.63;;;20.77;100.00
5413;BME280;2729;50.056;8.678;2022-08-19T05:08:17;99865.66;;;21.04;100.00
5413;BME280;2729;50.056;8.678;2022-08-19T05:10:47;99867.00;;;21.10;100.00
5413;BME280;2729;50.056;8.678;2022-08-19T05:13:15;99862.66;;;21.09;100.00
5413;BME280;2729;50.056;8.678;2022-08-19T05:15:42;99860.56;;;21.25;100.00
5413;BME280;2729;50.056;8.678;2022-08-19T05:18:09;99861.84;;;21.55;100.00
5413;BME280;2729;50.056;8.678;2022-08-19T05:20:53;99870.56;;;21.68;100.00
5413;BME280;2729;50.056;8.678;2022-08-19T05:23:38;99879.16;;;21.82;100.00
5413;BME280;2729;50.056;8.678;2022-08-19T05:26:06;99873.00;;;21.93;100.00
5413;BME280;2729;50.056;8.678;2022-08-19T05:28:31;99871.56;;;22.00;100.00
5413;BME280;2729;50.056;8.678;2022-08-19T05:30:57;99863.72;;;22.10;100.00
5413;BME280;2729;50.056;8.678;2022-08-19T05:33:23;99873.63;;;22.08;100.00
5413;BME280;2729;50.056;8.678;2022-08-19T05:35:50;99874.84;;;22.15;100.00
5413;BME280;2729;50.056;8.678;2022-08-19T05:38:17;99873.75;;;22.18;100.00
5413;BME280;2729;50.056;8.678;2022-08-19T05:40:43;99864.06;;;22.28;100.00
5413;BME280;2729;50.056;8.678;2022-08-19T05:43:12;99873.59;;;22.41;100.00
5413;BME280;2729;50.056;8.678;2022-08-19T05:45:42;99872.75;;;22.52;100.00
5413;BME280;2729;50.056;8.678;2022-08-19T05:48:09;99858.81;;;22.60;100.00
5413;BME280;2729;50.056;8.678;2022-08-19T05:50:40;99875.41;;;22.52;100.00
5413;BME280;2729;50.056;8.678;2022-08-19T05:53:06;99870.78;;;22.65;100.00
5413;BME280;2729;50.056;8.678;2022-08-19T05:55:34;99878.50;;;22.68;100.00
5413;BME280;2729;50.056;8.678;2022-08-19T05:58:00;99884.78;;;22.78;100.00
5413;BME280;2729;50.056;8.678;2022-08-19T06:00:27;99886.50;;;22.80;100.00
5413;BME280;2729;50.056;8.678;2022-08-19T06:02:53;99886.25;;;22.71;100.00
5413;BME280;2729;50.056;8.678;2022-08-19T06:05:22;99896.88;;;22.83;100.00
5413;BME280;2729;50.056;8.678;2022-08-19T06:07:48;99897.22;;;22.78;100.00
5413;BME280;2729;50.056;8.678;2022-08-19T06:10:14;99892.16;;;22.75;100.00
5413;BME280;2729;50.056;8.678;2022-08-19T06:12:40;99896.59;;;22.97;100.00
5413;BME280;2729;50.056;8.678;2022-08-19T06:15:11;99898.50;;;23.06;100.00
5413;BME280;2729;50.056;8.678;2022-08-19T06:17:37;99908.44;;;23.04;100.00
5413;BME280;2729;50.056;8.678;2022-08-19T06:20:06;99916.25;;;23.17;100.00
5413;BME280;2729;50.056;8.678;2022-08-19T06:22:37;99915.06;;;23.09;100.00
5413;BME280;2729;50.056;8.678;2022-08-19T06:25:04;99910.88;;;23.28;100.00
5413;BME280;2729;50.056;8.678;2022-08-19T06:27:30;99915.81;;;23.32;100.00
5413;BME280;2729;50.056;8.678;2022-08-19T06:29:58;99922.22;;;23.41;100.00
5413;BME280;2729;50.056;8.678;2022-08-19T06:32:26;99918.34;;;23.45;100.00
5413;BME280;2729;50.056;8.678;2022-08-19T06:34:52;99926.75;;;23.61;100.00
5413;BME280;2729;50.056;8.678;2022-08-19T06:37:18;99929.75;;;23.68;100.00
5413;BME280;2729;50.056;8.678;2022-08-19T06:39:44;99935.59;;;23.62;100.00
5413;BME280;2729;50.056;8.678;2022-08-19T06:42:11;99944.88;;;23.67;100.00
5413;BME280;2729;50.056;8.678;2022-08-19T06:44:40;99945.47;;;23.71;100.00
5413;BME280;2729;50.056;8.678;2022-08-19T06:47:08;99943.50;;;23.94;100.00
5413;BME280;2729;50.056;8.678;2022-08-19T06:49:35;99932.06;;;23.82;100.00
5413;BME280;2729;50.056;8.678;2022-08-19T06:52:01;99939.56;;;23.88;100.00
5413;BME280;2729;50.056;8.678;2022-08-19T06:54:28;99938.19;;;23.73;100.00
5413;BME280;2729;50.056;8.678;2022-08-19T06:56:57;99947.41;;;23.90;100.00
5413;BME280;2729;50.056;8.678;2022-08-19T06:59:24;99955.88;;;23.95;100.00
5413;BME280;2729;50.056;8.678;2022-08-19T07:01:55;99945.13;;;24.06;100.00
5413;BME280;2729;50.056;8.678;2022-08-19T07:04:24;99942.59;;;24.04;100.00
5413;BME280;2729;50.056;8.678;2022-08-19T07:06:58;99941.63;;;24.05;100.00
5413;BME280;2729;50.056;8.678;2022-08-19T07:09:25;99945.91;;;23.97;100.00
5413;BME280;2729;50.056;8.678;2022-08-19T07:11:53;99950.19;;;24.30;100.00
5413;BME280;2729;50.056;8.678;2022-08-19T07:14:23;99950.63;;;24.14;100.00
5413;BME280;2729;50.056;8.678;2022-08-19T07:16:50;99953.16;;;24.36;100.00
5413;BME280;2729;50.056;8.678;2022-08-19T07:19:18;99952.69;;;24.62;100.00
5413;BME280;2729;50.056;8.678;2022-08-19T07:21:48;99964.94;;;24.34;100.00
5413;BME280;2729;50.056;8.678;2022-08-19T07:24:15;99960.84;;;24.30;100.00
5413;BME280;2729;50.056;8.678;2022-08-19T07:26:43;99966.25;;;24.40;100.00
5413;BME280;2729;50.056;8.678;2022-08-19T07:29:10;99958.38;;;24.38;100.00
5413;BME280;2729;50.056;8.678;2022-08-19T07:31:36;99954.25;;;24.64;100.00
5413;BME280;2729;50.056;8.678;2022-08-19T07:34:05;99960.16;;;24.68;100.00
5413;BME280;2729;50.056;8.678;2022-08-19T07:36:36;99960.56;;;24.63;100.00
5413;BME280;2729;50.056;8.678;2022-08-19T07:39:10;99954.31;;;24.84;100.00
5413;BME280;2729;50.056;8.678;2022-08-19T07:41:36;99958.59;;;24.65;98.17
5413;BME280;2729;50.056;8.678;2022-08-19T07:44:04;99959.06;;;24.80;97.25
5413;BME280;2729;50.056;8.678;2022-08-19T07:46:33;99961.47;;;24.83;96.35
5413;BME280;2729;50.056;8.678;2022-08-19T07:48:59;99963.56;;;24.80;96.53
5413;BME280;2729;50.056;8.678;2022-08-19T07:51:26;99955.56;;;24.80;95.82
5413;BME280;2729;50.056;8.678;2022-08-19T07:53:54;99960.69;;;25.02;94.91
5413;BME280;2729;50.056;8.678;2022-08-19T07:56:21;99956.06;;;25.04;93.46
5413;BME280;2729;50.056;8.678;2022-08-19T07:58:48;99960.56;;;25.13;91.48
5413;BME280;2729;50.056;8.678;2022-08-19T08:01:19;99967.16;;;25.09;92.23
5413;BME280;2729;50.056;8.678;2022-08-19T08:03:45;99960.13;;;24.98;90.81
5413;BME280;2729;50.056;8.678;2022-08-19T08:06:41;99959.16;;;25.09;91.11
5413;BME280;2729;50.056;8.678;2022-08-19T08:09:30;99961.00;;;25.38;89.78
5413;BME280;2729;50.056;8.678;2022-08-19T08:12:01;99965.34;;;25.29;89.81
5413;BME280;2729;50.056;8.678;2022-08-19T08:17:04;99958.88;;;25.22;86.16
5413;BME280;2729;50.056;8.678;2022-08-19T08:19:30;99965.94;;;25.32;86.89
5413;BME280;2729;50.056;8.678;2022-08-19T08:21:58;99963.41;;;25.50;87.93
5413;BME280;2729;50.056;8.678;2022-08-19T08:24:26;99967.75;;;25.51;85.18
5413;BME280;2729;50.056;8.678;2022-08-19T08:26:52;99967.03;;;25.20;88.06
5413;BME280;2729;50.056;8.678;2022-08-19T08:29:18;99968.47;;;25.44;86.30
5413;BME280;2729;50.056;8.678;2022-08-19T08:31:46;99967.75;;;25.61;83.86
5413;BME280;2729;50.056;8.678;2022-08-19T08:34:13;99975.63;;;25.43;88.85
5413;BME280;2729;50.056;8.678;2022-08-19T08:36:42;99974.66;;;25.35;85.63
5413;BME280;2729;50.056;8.678;2022-08-19T08:39:09;99977.88;;;25.48;85.61
5413;BME280;2729;50.056;8.678;2022-08-19T08:42:06;99970.03;;;25.66;84.51
5413;BME280;2729;50.056;8.678;2022-08-19T08:47:04;99970.56;;;26.08;81.42
5413;BME280;2729;50.056;8.678;2022-08-19T08:49:41;99976.59;;;26.10;87.45
5413;BME280;2729;50.056;8.678;2022-08-19T08:52:22;99979.50;;;26.26;80.30
5413;BME280;2729;50.056;8.678;2022-08-19T08:54:52;99969.16;;;26.04;79.11
5413;BME280;2729;50.056;8.678;2022-08-19T08:57:49;99964.59;;;26.33;76.96
5413;BME280;2729;50.056;8.678;2022-08-19T09:00:21;99954.91;;;26.13;80.72
5413;BME280;2729;50.056;8.678;2022-08-19T09:02:48;99954.44;;;26.27;78.81
5413;BME280;2729;50.056;8.678;2022-08-19T09:05:14;99955.28;;;26.37;76.95
5413;BME280;2729;50.056;8.678;2022-08-19T09:07:58;99959.94;;;26.63;76.83
5413;BME280;2729;50.056;8.678;2022-08-19T09:10:32;99967.28;;;26.61;77.47
5413;BME280;2729;50.056;8.678;2022-08-19T09:16:06;99951.50;;;26.57;78.74
5413;BME280;2729;50.056;8.678;2022-08-19T09:18:46;99958.53;;;26.21;78.05
5413;BME280;2729;50.056;8.678;2022-08-19T09:21:13;99956.13;;;26.38;76.41
5413;BME280;2729;50.056;8.678;2022-08-19T09:23:39;99950.63;;;26.30;78.18
5413;BME280;2729;50.056;8.678;2022-08-19T09:26:08;99944.66;;;26.45;77.24
5413;BME280;2729;50.056;8.678;2022-08-19T09:28:34;99955.19;;;26.84;77.22
5413;BME280;2729;50.056;8.678;2022-08-19T09:31:00;99957.69;;;26.85;72.85
5413;BME280;2729;50.056;8.678;2022-08-19T09:33:26;99950.34;;;26.87;73.90
5413;BME280;2729;50.056;8.678;2022-08-19T09:36:02;99949.09;;;26.64;70.72
5413;BME280;2729;50.056;8.678;2022-08-19T09:38:29;99959.31;;;26.96;71.20
5413;BME280;2729;50.056;8.678;2022-08-19T09:40:54;99956.91;;;27.03;70.40
5413;BME280;2729;50.056;8.678;2022-08-19T09:43:20;99951.50;;;27.30;69.19
5413;BME280;2729;50.056;8.678;2022-08-19T09:45:47;99954.94;;;27.40;68.12
5413;BME280;2729;50.056;8.678;2022-08-19T09:48:13;99941.94;;;27.28;69.87
5413;BME280;2729;50.056;8.678;2022-08-19T09:50:39;99942.28;;;26.97;68.57
5413;BME280;2729;50.056;8.678;2022-08-19T09:53:05;99938.41;;;26.82;72.71
5413;BME280;2729;50.056;8.678;2022-08-19T09:55:33;99946.66;;;26.98;69.54
5413;BME280;2729;50.056;8.678;2022-08-19T09:58:00;99950.81;;;26.83;69.81
5413;BME280;2729;50.056;8.678;2022-08-19T10:00:26;99951.22;;;26.61;76.10
5413;BME280;2729;50.056;8.678;2022-08-19T10:02:52;99945.66;;;26.72;71.01
5413;BME280;2729;50.056;8.678;2022-08-19T10:05:18;99947.28;;;27.10;70.96
5413;BME280;2729;50.056;8.678;2022-08-19T10:08:02;99952.88;;;27.16;67.34
5413;BME280;2729;50.056;8.678;2022-08-19T10:10:28;99948.66;;;27.14;69.24
5413;BME280;2729;50.056;8.678;2022-08-19T10:12:54;99942.56;;;26.94;70.26
5413;BME280;2729;50.056;8.678;2022-08-19T10:15:20;99953.41;;;27.20;70.81
5413;BME280;2729;50.056;8.678;2022-08-19T10:17:46;99949.41;;;27.06;68.32
5413;BME280;2729;50.056;8.678;2022-08-19T10:20:13;99952.25;;;27.22;68.12
5413;BME280;2729;50.056;8.678;2022-08-19T10:22:39;99954.94;;;27.22;69.31
5413;BME280;2729;50.056;8.678;2022-08-19T10:25:06;99950.13;;;27.08;71.64
5413;BME280;2729;50.056;8.678;2022-08-19T10:27:32;99949.56;;;27.05;72.38
5413;BME280;2729;50.056;8.678;2022-08-19T10:29:58;99950.66;;;27.12;69.65
5413;BME280;2729;50.056;8.678;2022-08-19T10:32:24;99954.09;;;27.04;71.10
5413;BME280;2729;50.056;8.678;2022-08-19T10:34:50;99948.63;;;26.69;72.47
5413;BME280;2729;50.056;8.678;2022-08-19T10:37:17;99945.38;;;26.92;68.11
5413;BME280;2729;50.056;8.678;2022-08-19T10:39:46;99947.34;;;27.18;65.28
5413;BME280;2729;50.056;8.678;2022-08-19T10:42:13;99939.91;;;27.47;66.11
5413;BME280;2729;50.056;8.678;2022-08-19T10:44:40;99928.88;;;27.68;64.73
5413;BME280;2729;50.056;8.678;2022-08-19T10:47:06;99929.94;;;27.75;64.52
5413;BME280;2729;50.056;8.678;2022-08-19T10:49:32;99936.56;;;27.63;65.65
5413;BME280;2729;50.056;8.678;2022-08-19T10:52:18;99929.66;;;27.61;64.53
5413;BME280;2729;50.056;8.678;2022-08-19T10:58:34;99921.28;;;28.41;60.32
5413;BME280;2729;50.056;8.678;2022-08-19T11:01:00;99921.78;;;28.37;60.05
5413;BME280;2729;50.056;8.678;2022-08-19T11:03:27;99917.94;;;28.39;58.96
5413;BME280;2729;50.056;8.678;2022-08-19T11:06:00;99910.94;;;28.21;62.54
5413;BME280;2729;50.056;8.678;2022-08-19T11:08:27;99904.78;;;28.28;60.69
5413;BME280;2729;50.056;8.678;2022-08-19T11:10:54;99901.19;;;28.54;57.81
5413;BME280;2729;50.056;8.678;2022-08-19T11:13:23;99891.56;;;28.35;59.71
5413;BME280;2729;50.056;8.678;2022-08-19T11:16:12;99897.81;;;28.43;59.10
5413;BME280;2729;50.056;8.678;2022-08-19T11:18:48;99889.03;;;28.75;60.75
5413;BME280;2729;50.056;8.678;2022-08-19T11:21:20;99889.69;;;28.61;58.39
5413;BME280;2729;50.056;8.678;2022-08-19T11:23:49;99880.44;;;28.64;58.17
5413;BME280;2729;50.056;8.678;2022-08-19T11:26:17;99873.25;;;28.72;54.90
5413;BME280;2729;50.056;8.678;2022-08-19T11:28:43;99873.00;;;28.58;54.55
5413;BME280;2729;50.056;8.678;2022-08-19T11:31:11;99862.34;;;28.82;54.52
5413;BME280;2729;50.056;8.678;2022-08-19T11:33:38;99853.16;;;28.93;57.38
5413;BME280;2729;50.056;8.678;2022-08-19T11:36:04;99851.66;;;29.15;55.45
5413;BME280;2729;50.056;8.678;2022-08-19T11:38:30;99847.63;;;29.02;52.44
5413;BME280;2729;50.056;8.678;2022-08-19T11:40:59;99858.38;;;29.02;55.73
5413;BME280;2729;50.056;8.678;2022-08-19T11:43:26;99857.03;;;28.90;55.53
5413;BME280;2729;50.056;8.678;2022-08-19T11:45:53;99857.34;;;28.87;54.85
5413;BME280;2729;50.056;8.678;2022-08-19T11:48:19;99869.75;;;28.80;54.25
5413;BME280;2729;50.056;8.678;2022-08-19T11:50:49;99873.81;;;28.50;55.13
5413;BME280;2729;50.056;8.678;2022-08-19T11:53:16;99867.91;;;28.38;53.64
5413;BME280;2729;50.056;8.678;2022-08-19T11:55:43;99882.00;;;28.32;54.41
5413;BME280;2729;50.056;8.678;2022-08-19T11:58:11;99872.25;;;28.31;56.64
5413;BME280;2729;50.056;8.678;2022-08-19T12:00:39;99872.75;;;28.77;54.48
5413;BME280;2729;50.056;8.678;2022-08-19T12:03:05;99857.03;;;28.90;58.84
5413;BME280;2729;50.056;8.678;2022-08-19T12:05:31;99864.59;;;29.11;52.30
5413;BME280;2729;50.056;8.678;2022-08-19T12:07:57;99854.34;;;29.23;53.90
5413;BME280;2729;50.056;8.678;2022-08-19T12:10:23;99867.63;;;29.57;50.16
5413;BME280;2729;50.056;8.678;2022-08-19T12:12:49;99860.56;;;29.39;48.95
5413;BME280;2729;50.056;8.678;2022-08-19T12:15:15;99862.91;;;29.34;49.69
5413;BME280;2729;50.056;8.678;2022-08-19T12:17:41;99859.31;;;28.77;50.58
5413;BME280;2729;50.056;8.678;2022-08-19T12:20:10;99860.13;;;28.61;54.55
5413;BME280;2729;50.056;8.678;2022-08-19T12:22:37;99855.88;;;28.50;54.74
5413;BME280;2729;50.056;8.678;2022-08-19T12:25:04;99858.56;;;28.50;52.84
5413;BME280;2729;50.056;8.678;2022-08-19T12:27:30;99853.41;;;28.65;54.06
5413;BME280;2729;50.056;8.678;2022-08-19T12:29:56;99843.88;;;28.71;52.26
5413;BME280;2729;50.056;8.678;2022-08-19T12:32:23;99854.50;;;29.29;52.34
5413;BME280;2729;50.056;8.678;2022-08-19T12:34:50;99850.59;;;29.81;48.05
5413;BME280;2729;50.056;8.678;2022-08-19T12:37:16;99843.06;;;29.60;49.31
5413;BME280;2729;50.056;8.678;2022-08-19T12:39:42;99844.91;;;29.75;46.06
5413;BME280;2729;50.056;8.678;2022-08-19T12:42:10;99847.78;;;29.09;49.60
5413;BME280;2729;50.056;8.678;2022-08-19T12:44:38;99857.22;;;29.54;47.33
5413;BME280;2729;50.056;8.678;2022-08-19T12:47:06;99850.47;;;29.17;47.94
5413;BME280;2729;50.056;8.678;2022-08-19T12:49:33;99846.78;;;29.51;48.32
5413;BME280;2729;50.056;8.678;2022-08-19T12:52:00;99842.59;;;29.56;48.29
5413;BME280;2729;50.056;8.678;2022-08-19T12:54:27;99842.94;;;29.45;46.02
5413;BME280;2729;50.056;8.678;2022-08-19T12:56:54;99838.22;;;29.39;46.05
5413;BME280;2729;50.056;8.678;2022-08-19T12:59:21;99840.69;;;29.81;45.75
5413;BME280;2729;50.056;8.678;2022-08-19T13:01:47;99845.94;;;29.58;45.00
5413;BME280;2729;50.056;8.678;2022-08-19T13:04:12;99839.38;;;29.28;44.98
5413;BME280;2729;50.056;8.678;2022-08-19T13:06:38;99841.25;;;29.28;45.48
5413;BME280;2729;50.056;8.678;2022-08-19T13:09:05;99844.25;;;29.33;46.31
5413;BME280;2729;50.056;8.678;2022-08-19T13:11:31;99851.66;;;29.23;49.06
5413;BME280;2729;50.056;8.678;2022-08-19T13:14:00;99842.59;;;29.16;46.40
5413;BME280;2729;50.056;8.678;2022-08-19T13:16:26;99839.91;;;29.48;44.33
5413;BME280;2729;50.056;8.678;2022-08-19T13:18:54;99843.16;;;29.91;43.21
5413;BME280;2729;50.056;8.678;2022-08-19T13:21:23;99844.91;;;29.67;44.91
5413;BME280;2729;50.056;8.678;2022-08-19T13:23:50;99847.78;;;29.41;43.50
5413;BME280;2729;50.056;8.678;2022-08-19T13:26:17;99850.16;;;29.20;46.59
5413;BME280;2729;50.056;8.678;2022-08-19T13:28:44;99860.50;;;28.83;48.52
5413;BME280;2729;50.056;8.678;2022-08-19T13:31:31;99861.22;;;28.85;47.77
5413;BME280;2729;50.056;8.678;2022-08-19T13:34:18;99864.06;;;28.83;49.80